Chino Valley, AZ

5:22 AM MST on October 24, 2014 (GMT -0700)
Chino Valley 1 North | Change Station
CLOSE
Current Station
Personal Weather Station
Location: Chino Valley, AZ
Elevation: 4734 ft
Nearby Weather Stations

Elev 4734 ft 34.75 °N, 112.46 °W | Updated 3 seconds ago

Clear
Clear
42.3 °F
Feels Like 42 °F
N
0.0
Wind Variable Wind from SSE
Gusts 0.0 mph

Today
High -- | Low -- °F
--% Chance of Precip.
Yesterday
High -- | Low -- °F
Precip. -- in
6:43 AM 5:44 PM
New Moon, 0% visible
Pressure 30.06 in
Visibility 10.0 miles
Clouds Clear
Windchill 42 °F
Dew Point 36 °F
Humidity 79%
Rainfall 0.00 in
Snow Depth Not available.
UV 0 out of 12
Pollen 5.20 out of 12
Air Quality Not available.
Flu Activity No Activity
METAR KPRC 241153Z AUTO 20005KT 10SM CLR 08/02 A3024 RMK AO2 SLP180 T00830022 10128 20072 55001

More Conditions Fewer Conditions

Pressure 30.06 in
Visibility 10.0 miles
Clouds Clear
Windchill 42 °F
Dew Point 36 °F
Humidity 79%
Rainfall 0.00 in
Snow Depth Not available.
UV 0 out of 12
Pollen 5.20 out of 12
Air Quality Not available.
Flu Activity No Activity
METAR KPRC 241153Z AUTO 20005KT 10SM CLR 08/02 A3024 RMK AO2 SLP180 T00830022 10128 20072 55001

More Conditions Fewer Conditions

10-Day Weather Forecast

Almanac

Astronomy

Oct. 24, 2014 Rise Set
Actual Time 6:43 AM MST 5:44 PM MST
Civil Twilight 6:17 AM MST 6:09 PM MST
Nautical Twilight 5:48 AM MST 6:39 PM MST
Astronomical Twilight 5:18 AM MST 7:08 PM MST
Moon 7:24 AM MST 6:28 PM MST
Length of Visible Light 11h 52m
Length of Day
11h 00m
Tomorrow will be 2m 0s shorter.
New Moon, 0% of the Moon is Illuminated
Today
New Moon
Oct 30
First Quarter
Nov 6
Full
Nov 14
Last Quarter
Nov 22
New

Today's Extremes

State Highs State Lows

Community

WunderPhotos

Upload Photos

1,764,533 photos uploaded!

Nearby

Snow Depth

Station Depth Elevation
White Horse Lake 1 in 7180 ft
Mormon Mountain 0 in 7500 ft
Snowslide Canyon 0 in 9730 ft
Happy Jack 0 in 7630 ft
Baker Butte 0 in 7300 ft

Earthquake Activity

City Distance Mag. Time & Date
No recent earthquake activity has been reported nearby.
Minimum magnitude displayed is 2.5.

Coastal Water Temperatures

Place Temperature
No Stations Reporting

Nearby Weather Stations